createdAt,value
2022-09-18T00:00:35.844Z,25.40
2022-09-18T00:03:41.594Z,27.02
2022-09-18T00:06:50.765Z,28.00
2022-09-18T00:09:56.663Z,26.17
2022-09-18T00:13:03.052Z,27.80
2022-09-18T00:16:11.783Z,26.20
2022-09-18T00:19:17.132Z,33.83
2022-09-18T00:22:23.714Z,27.48
2022-09-18T00:25:30.269Z,31.50
2022-09-18T00:28:37.213Z,32.00
2022-09-18T00:31:46.302Z,29.63
2022-09-18T00:34:53.120Z,27.82
2022-09-18T00:38:01.183Z,31.45
2022-09-18T00:41:06.504Z,27.17
2022-09-18T00:44:49.273Z,25.88
2022-09-18T00:48:00.491Z,27.17
2022-09-18T00:51:07.117Z,31.27
2022-09-18T00:54:42.888Z,28.85
2022-09-18T00:57:50.577Z,29.92
2022-09-18T01:00:57.068Z,30.70
2022-09-18T01:04:03.009Z,30.10
2022-09-18T01:07:34.303Z,27.87
2022-09-18T01:10:53.819Z,29.00
2022-09-18T01:14:04.962Z,28.75
2022-09-18T01:17:29.417Z,30.30
2022-09-18T01:21:02.618Z,30.37
2022-09-18T01:24:31.447Z,31.70
2022-09-18T01:27:58.319Z,29.00
2022-09-18T01:31:03.966Z,29.98
2022-09-18T01:34:23.215Z,34.05
2022-09-18T01:38:04.410Z,34.43
2022-09-18T01:41:29.102Z,31.62
2022-09-18T01:44:43.079Z,32.13
2022-09-18T01:47:57.383Z,32.58
2022-09-18T01:51:11.939Z,37.67
2022-09-18T01:54:29.770Z,28.73
2022-09-18T01:58:00.988Z,31.75
2022-09-18T02:01:10.039Z,33.30
2022-09-18T02:04:20.423Z,32.53
2022-09-18T02:07:36.063Z,35.45
2022-09-18T02:10:44.334Z,36.40
2022-09-18T02:14:05.416Z,37.73
2022-09-18T02:17:27.595Z,36.53
2022-09-18T02:20:40.418Z,46.73
2022-09-18T02:23:46.395Z,40.58
2022-09-18T02:26:53.659Z,37.65
2022-09-18T02:30:01.146Z,38.90
2022-09-18T02:33:10.965Z,41.65
2022-09-18T02:36:57.288Z,40.33
2022-09-18T02:40:22.353Z,45.50
2022-09-18T02:44:09.463Z,44.03
2022-09-18T02:47:39.604Z,44.00
2022-09-18T02:51:22.452Z,43.00
2022-09-18T02:54:43.791Z,43.87
2022-09-18T02:57:58.537Z,41.35
2022-09-18T03:01:06.139Z,40.60
2022-09-18T03:04:19.235Z,34.78
2022-09-18T03:07:39.357Z,44.77
2022-09-18T03:10:45.535Z,39.40
2022-09-18T03:13:53.947Z,44.90
2022-09-18T03:17:01.135Z,40.90
2022-09-18T03:20:07.862Z,35.78
2022-09-18T03:23:14.047Z,42.67
2022-09-18T03:26:21.610Z,40.52
2022-09-18T03:29:28.491Z,42.60
2022-09-18T03:32:33.344Z,39.00
2022-09-18T03:35:41.053Z,35.70
2022-09-18T03:38:49.014Z,35.52
2022-09-18T03:41:56.230Z,33.23
2022-09-18T03:45:04.381Z,30.20
2022-09-18T03:48:10.781Z,27.32
2022-09-18T03:51:17.242Z,30.05
2022-09-18T03:54:23.834Z,34.55
2022-09-18T03:57:32.954Z,28.00
2022-09-18T04:00:55.749Z,26.10
2022-09-18T04:04:03.659Z,26.10
2022-09-18T04:07:12.989Z,23.98
2022-09-18T04:10:39.236Z,25.57
2022-09-18T04:13:48.982Z,24.67
2022-09-18T04:16:55.975Z,23.40
2022-09-18T04:20:02.208Z,20.55
2022-09-18T04:23:08.809Z,22.40
2022-09-18T04:26:16.757Z,20.48
2022-09-18T04:29:25.289Z,21.62
2022-09-18T04:32:33.122Z,20.25
2022-09-18T04:35:39.093Z,18.82
2022-09-18T04:38:46.638Z,17.77
2022-09-18T04:41:56.614Z,23.05
2022-09-18T04:45:02.319Z,17.07
2022-09-18T04:48:08.798Z,20.62
2022-09-18T04:51:14.048Z,17.85
2022-09-18T04:54:20.952Z,18.00
2022-09-18T04:57:26.550Z,16.80
2022-09-18T05:00:35.634Z,19.40
2022-09-18T05:03:42.525Z,19.95
2022-09-18T05:06:51.166Z,22.30
2022-09-18T05:09:57.363Z,20.62
2022-09-18T05:13:05.931Z,23.85
2022-09-18T05:16:13.443Z,23.92
2022-09-18T05:19:22.973Z,24.52
2022-09-18T05:22:30.431Z,26.95
2022-09-18T05:25:38.788Z,25.50
2022-09-18T05:28:48.255Z,27.17
2022-09-18T05:31:55.389Z,27.02
2022-09-18T05:35:03.479Z,31.73
2022-09-18T05:38:11.709Z,28.27
2022-09-18T05:41:17.097Z,30.88
2022-09-18T05:44:23.914Z,34.33
2022-09-18T05:47:30.230Z,33.28
2022-09-18T05:50:36.350Z,30.20
2022-09-18T05:53:44.169Z,32.98
2022-09-18T05:56:54.286Z,30.27
2022-09-18T06:00:02.576Z,34.45
2022-09-18T06:03:20.049Z,33.73
2022-09-18T06:06:28.585Z,31.20
2022-09-18T06:09:34.486Z,32.78
2022-09-18T06:12:39.466Z,34.67
2022-09-18T06:15:45.283Z,32.50
2022-09-18T06:18:52.694Z,36.42
2022-09-18T06:21:58.213Z,34.25
2022-09-18T06:25:07.070Z,33.53
2022-09-18T06:28:13.903Z,34.67
2022-09-18T06:31:19.659Z,35.95
2022-09-18T06:34:38.648Z,35.95
2022-09-18T06:37:45.118Z,36.38
2022-09-18T06:41:06.600Z,35.55
2022-09-18T06:44:15.601Z,40.17
2022-09-18T06:47:22.774Z,37.70
2022-09-18T06:50:29.771Z,39.73
2022-09-18T06:53:35.627Z,40.03
2022-09-18T06:56:41.390Z,38.38
2022-09-18T06:59:48.619Z,40.92
2022-09-18T07:02:55.248Z,39.05
2022-09-18T07:06:16.631Z,40.58
2022-09-18T07:09:25.760Z,39.25
2022-09-18T07:12:36.301Z,38.25
2022-09-18T07:15:43.483Z,40.50
2022-09-18T07:18:48.373Z,37.83
2022-09-18T07:21:54.995Z,37.95
2022-09-18T07:25:05.216Z,37.35
2022-09-18T07:28:20.892Z,36.50
2022-09-18T07:31:31.081Z,36.63
2022-09-18T07:34:38.905Z,34.58
2022-09-18T07:37:46.681Z,32.88
2022-09-18T07:40:54.636Z,37.83
2022-09-18T07:44:06.971Z,34.95
2022-09-18T07:47:13.714Z,32.10
2022-09-18T07:50:23.119Z,34.63
2022-09-18T07:53:28.943Z,31.15
2022-09-18T07:56:37.202Z,33.10
2022-09-18T07:59:44.302Z,29.55
2022-09-18T08:02:52.665Z,28.17
2022-09-18T08:06:01.906Z,29.90
2022-09-18T08:09:08.600Z,32.35
2022-09-18T08:12:20.039Z,26.62
2022-09-18T08:15:32.694Z,26.30
2022-09-18T08:18:45.993Z,30.62
2022-09-18T08:22:12.115Z,25.32
2022-09-18T08:25:22.843Z,26.52
2022-09-18T08:28:27.918Z,25.77
2022-09-18T08:31:37.062Z,30.88
2022-09-18T08:34:43.629Z,28.83
2022-09-18T08:37:50.511Z,26.73
2022-09-18T08:41:16.486Z,26.80
2022-09-18T08:44:33.506Z,26.30
2022-09-18T08:47:47.343Z,24.80
2022-09-18T08:50:54.955Z,27.22
2022-09-18T08:54:05.379Z,34.67
2022-09-18T08:57:35.360Z,24.52
2022-09-18T09:00:32.919Z,27.02
2022-09-18T09:03:50.374Z,24.12
2022-09-18T09:07:09.329Z,22.58
2022-09-18T09:10:47.920Z,23.50
2022-09-18T09:14:56.624Z,21.68
2022-09-18T09:18:09.780Z,19.23
2022-09-18T09:21:34.394Z,24.82
2022-09-18T09:24:47.394Z,20.55
2022-09-18T09:28:35.170Z,19.67
2022-09-18T09:32:11.567Z,18.90
2022-09-18T09:35:53.618Z,16.57
2022-09-18T09:39:24.333Z,16.48
2022-09-18T09:42:52.831Z,15.88
2022-09-18T09:46:05.935Z,20.52
2022-09-18T09:49:38.979Z,17.23
2022-09-18T09:52:47.877Z,14.75
2022-09-18T09:56:38.853Z,15.90
2022-09-18T09:59:52.664Z,15.83
2022-09-18T10:03:39.388Z,11.22
2022-09-18T10:06:58.150Z,14.20
2022-09-18T10:10:36.363Z,14.40
2022-09-18T10:13:54.241Z,14.50
2022-09-18T10:17:03.563Z,13.40
2022-09-18T10:20:09.545Z,18.00
2022-09-18T10:23:19.714Z,12.55
2022-09-18T10:26:35.571Z,12.70
2022-09-18T10:29:44.844Z,16.50
2022-09-18T10:32:53.996Z,13.43
2022-09-18T10:36:05.110Z,17.55
2022-09-18T10:39:14.269Z,11.20
2022-09-18T10:42:20.699Z,9.98
2022-09-18T10:45:40.382Z,10.25
2022-09-18T10:48:49.284Z,11.88
2022-09-18T10:51:55.558Z,13.10
2022-09-18T10:55:34.805Z,8.48
2022-09-18T10:58:45.807Z,9.05
2022-09-18T11:01:52.299Z,8.73
2022-09-18T11:05:02.033Z,8.63
2022-09-18T11:08:13.456Z,8.48
2022-09-18T11:11:22.035Z,13.18
2022-09-18T11:14:41.915Z,7.20
2022-09-18T11:17:54.632Z,8.95
2022-09-18T11:21:01.747Z,9.60
2022-09-18T11:24:25.540Z,8.18
2022-09-18T11:27:37.494Z,9.28
2022-09-18T11:30:51.318Z,7.00
2022-09-18T11:34:11.352Z,5.80
2022-09-18T11:37:22.909Z,4.67
2022-09-18T11:40:46.297Z,7.28
2022-09-18T11:43:55.487Z,6.40
2022-09-18T11:47:24.567Z,8.28
2022-09-18T11:50:39.464Z,5.97
2022-09-18T11:53:55.297Z,5.10
2022-09-18T11:57:06.155Z,6.42
2022-09-18T12:00:25.525Z,6.42
2022-09-18T12:03:46.043Z,6.37
2022-09-18T12:07:39.920Z,6.67
2022-09-18T12:10:59.684Z,3.75
2022-09-18T12:14:20.455Z,5.55
2022-09-18T12:18:11.584Z,5.90
2022-09-18T12:21:30.199Z,6.17
2022-09-18T12:24:35.476Z,6.90
2022-09-18T12:28:10.801Z,8.40
2022-09-18T12:31:32.539Z,5.60
2022-09-18T12:34:59.023Z,2.90
2022-09-18T12:38:37.818Z,11.40
2022-09-18T12:42:16.973Z,4.45
2022-09-18T12:45:46.805Z,4.42
2022-09-18T12:49:30.330Z,3.17
2022-09-18T12:53:08.996Z,3.83
2022-09-18T12:56:38.948Z,3.37
2022-09-18T13:00:12.358Z,6.87
2022-09-18T13:03:28.722Z,7.17
2022-09-18T13:06:41.851Z,5.12
2022-09-18T13:10:00.277Z,11.40
2022-09-18T13:13:27.970Z,2.85
2022-09-18T13:16:50.410Z,5.58
2022-09-18T13:26:17.382Z,3.75
2022-09-18T13:30:05.549Z,4.60
2022-09-18T13:33:14.141Z,6.28
2022-09-18T13:36:21.658Z,7.55
2022-09-18T13:40:06.559Z,4.55
2022-09-18T13:42:53.949Z,11.27
2022-09-18T13:46:05.934Z,4.70
2022-09-18T13:49:08.974Z,11.18
2022-09-18T13:52:52.898Z,9.25
2022-09-18T13:56:04.491Z,8.10
2022-09-18T13:59:12.193Z,10.95
2022-09-18T14:02:22.972Z,8.85
2022-09-18T14:05:57.570Z,4.25
2022-09-18T14:09:04.700Z,3.67
2022-09-18T14:12:10.817Z,11.22
2022-09-18T14:15:25.658Z,5.03
2022-09-18T14:18:33.672Z,5.50
2022-09-18T14:21:43.107Z,7.12
2022-09-18T14:25:07.501Z,6.15
2022-09-18T14:28:16.072Z,3.95
2022-09-18T14:31:28.684Z,8.13
2022-09-18T14:34:50.545Z,7.47
2022-09-18T14:37:58.206Z,10.00
2022-09-18T14:41:32.481Z,9.23
2022-09-18T14:44:40.984Z,7.92
2022-09-18T14:47:46.571Z,7.10
2022-09-18T14:50:53.024Z,5.85
2022-09-18T14:54:01.419Z,5.83
2022-09-18T14:57:08.462Z,7.20
2022-09-18T15:00:16.757Z,11.28
2022-09-18T15:03:34.834Z,8.23
2022-09-18T15:06:56.329Z,8.00
2022-09-18T15:10:06.470Z,7.80
2022-09-18T15:13:13.730Z,6.58
2022-09-18T15:16:19.972Z,6.37
2022-09-18T15:19:31.027Z,7.87
2022-09-18T15:22:36.500Z,10.05
2022-09-18T15:25:46.510Z,6.08
2022-09-18T15:28:53.188Z,8.60
2022-09-18T15:31:59.850Z,5.62
2022-09-18T15:35:04.967Z,7.70
2022-09-18T15:38:16.984Z,7.97
2022-09-18T15:41:37.747Z,9.45
2022-09-18T15:45:08.579Z,8.10
2022-09-18T15:48:16.795Z,9.83
2022-09-18T15:51:41.251Z,12.20
2022-09-18T15:54:46.833Z,10.08
2022-09-18T15:57:53.373Z,7.70
2022-09-18T16:01:00.894Z,11.97
2022-09-18T16:04:34.229Z,10.55
2022-09-18T16:07:41.354Z,6.97
2022-09-18T16:10:58.514Z,6.28
2022-09-18T16:14:04.631Z,6.55
2022-09-18T16:17:11.603Z,8.28
2022-09-18T16:20:45.121Z,5.70
2022-09-18T16:24:06.965Z,4.70
2022-09-18T16:27:23.689Z,5.80
2022-09-18T16:30:29.074Z,6.90
2022-09-18T16:33:39.346Z,5.53
2022-09-18T16:36:50.215Z,2.70
2022-09-18T16:39:56.460Z,2.20
2022-09-18T16:43:05.030Z,3.45
2022-09-18T16:46:12.050Z,3.15
2022-09-18T16:49:16.881Z,5.58
2022-09-18T16:52:22.857Z,3.27
2022-09-18T16:55:29.089Z,5.83
2022-09-18T16:58:33.875Z,2.83
2022-09-18T17:01:54.270Z,3.85
2022-09-18T17:04:48.399Z,2.67
2022-09-18T17:07:54.276Z,9.63
2022-09-18T17:10:59.282Z,2.27
2022-09-18T17:14:06.476Z,2.87
2022-09-18T17:17:13.857Z,7.12
2022-09-18T17:20:23.943Z,3.02
2022-09-18T17:23:30.490Z,3.65
2022-09-18T17:26:38.605Z,3.02
2022-09-18T17:29:46.061Z,4.78
2022-09-18T17:32:50.646Z,2.80
2022-09-18T17:35:56.664Z,3.08
2022-09-18T17:39:02.893Z,3.37
2022-09-18T17:42:10.410Z,2.35
2022-09-18T17:45:15.293Z,5.15
2022-09-18T17:48:21.036Z,2.72
2022-09-18T17:51:30.006Z,9.10
2022-09-18T17:54:36.112Z,8.05
2022-09-18T17:57:43.921Z,3.22
2022-09-18T18:00:52.402Z,8.00
2022-09-18T18:03:58.644Z,5.05
2022-09-18T18:07:04.159Z,6.55
2022-09-18T18:10:09.388Z,3.65
2022-09-18T18:13:16.004Z,3.02
2022-09-18T18:16:24.180Z,8.85
2022-09-18T18:19:31.202Z,3.95
2022-09-18T18:22:36.903Z,8.05
2022-09-18T18:25:44.850Z,4.15
2022-09-18T18:28:51.318Z,5.22
2022-09-18T18:31:58.314Z,4.22
2022-09-18T18:35:03.884Z,4.40
2022-09-18T18:38:09.787Z,8.15
2022-09-18T18:41:16.968Z,4.15
2022-09-18T18:44:26.327Z,4.65
2022-09-18T18:47:35.734Z,3.92
2022-09-18T18:50:43.024Z,5.35
2022-09-18T18:53:48.468Z,9.63
2022-09-18T18:56:55.039Z,3.55
2022-09-18T19:00:03.849Z,7.00
2022-09-18T19:03:10.634Z,2.87
2022-09-18T19:06:16.675Z,6.67
2022-09-18T19:09:35.484Z,1.65
2022-09-18T19:12:41.556Z,4.58
2022-09-18T19:15:47.192Z,9.53
2022-09-18T19:18:53.631Z,4.17
2022-09-18T19:22:00.041Z,2.05
2022-09-18T19:25:08.080Z,7.08
2022-09-18T19:28:17.091Z,0.80
2022-09-18T19:31:24.463Z,1.65
2022-09-18T19:34:34.902Z,4.87
2022-09-18T19:37:43.804Z,7.80
2022-09-18T19:40:52.916Z,1.90
2022-09-18T19:43:59.186Z,7.53
2022-09-18T19:47:05.411Z,3.30
2022-09-18T19:50:13.365Z,2.80
2022-09-18T19:53:20.299Z,0.90
2022-09-18T19:56:42.606Z,2.80
2022-09-18T19:59:35.534Z,2.47
2022-09-18T20:02:43.812Z,3.65
2022-09-18T20:05:52.641Z,5.15
2022-09-18T20:08:58.945Z,1.65
2022-09-18T20:12:05.355Z,3.40
2022-09-18T20:15:12.239Z,2.62
2022-09-18T20:18:20.973Z,0.95
2022-09-18T20:21:30.179Z,1.37
2022-09-18T20:24:36.495Z,3.72
2022-09-18T20:27:44.018Z,2.33
2022-09-18T20:30:50.854Z,6.35
2022-09-18T20:33:57.427Z,1.00
2022-09-18T20:37:06.497Z,1.50
2022-09-18T20:40:14.371Z,3.02
2022-09-18T20:43:20.504Z,2.65
2022-09-18T20:46:29.108Z,3.05
2022-09-18T20:49:36.572Z,3.72
2022-09-18T20:52:43.493Z,2.37
2022-09-18T20:55:53.400Z,1.20
2022-09-18T20:58:59.179Z,1.55
2022-09-18T21:02:05.778Z,1.00
2022-09-18T21:05:12.603Z,1.55
2022-09-18T21:08:18.549Z,1.70
2022-09-18T21:11:30.331Z,0.93
2022-09-18T21:14:36.932Z,1.10
2022-09-18T21:17:45.018Z,1.57
2022-09-18T21:20:51.904Z,0.65
2022-09-18T21:24:04.060Z,0.95
2022-09-18T21:27:13.766Z,4.97
2022-09-18T21:30:23.310Z,0.35
2022-09-18T21:33:32.423Z,0.28
2022-09-18T21:36:41.838Z,2.10
2022-09-18T21:39:46.449Z,1.00
2022-09-18T21:42:55.993Z,0.40
2022-09-18T21:46:04.952Z,2.52
2022-09-18T21:49:12.859Z,2.08
2022-09-18T21:52:22.091Z,1.98
2022-09-18T21:55:27.121Z,0.62
2022-09-18T21:58:35.276Z,2.30
2022-09-18T22:01:44.792Z,2.08
2022-09-18T22:04:51.401Z,0.45
2022-09-18T22:07:56.387Z,0.75
2022-09-18T22:11:02.966Z,0.30
2022-09-18T22:14:10.690Z,1.77
2022-09-18T22:17:20.514Z,1.22
2022-09-18T22:20:27.466Z,3.33
2022-09-18T22:23:33.815Z,2.05
2022-09-18T22:26:41.351Z,0.70
2022-09-18T22:29:48.452Z,0.65
2022-09-18T22:32:54.456Z,1.87
2022-09-18T22:36:00.604Z,0.93
2022-09-18T22:39:07.598Z,0.60
2022-09-18T22:42:13.706Z,0.95
2022-09-18T22:45:25.072Z,0.68
2022-09-18T22:48:30.386Z,2.70
2022-09-18T22:51:38.531Z,1.40
2022-09-18T22:54:45.524Z,0.62
2022-09-18T22:57:45.236Z,0.75
2022-09-18T23:00:31.856Z,1.40
2022-09-18T23:03:24.456Z,0.93
2022-09-18T23:06:17.264Z,2.72
2022-09-18T23:09:23.551Z,1.20
2022-09-18T23:12:29.079Z,1.40
2022-09-18T23:15:35.019Z,1.45
2022-09-18T23:18:40.098Z,1.50
2022-09-18T23:21:47.294Z,1.57
2022-09-18T23:24:56.750Z,1.55
2022-09-18T23:28:06.456Z,1.70
2022-09-18T23:31:14.693Z,1.00
2022-09-18T23:34:27.779Z,0.82
2022-09-18T23:37:33.596Z,0.78
2022-09-18T23:40:40.244Z,0.88
2022-09-18T23:43:47.382Z,0.80
2022-09-18T23:46:53.199Z,1.57
2022-09-18T23:50:00.322Z,3.62
2022-09-18T23:53:07.374Z,0.70
2022-09-18T23:56:23.402Z,0.98
2022-09-18T23:59:29.351Z,1.00
